sensor_id;sensor_type;location;lat;lon;timestamp;pressure;altitude;pressure_sealevel;temperature;humidity
65329;BME280;51941;52.210;5.158;2023-05-15T00:00:58;101595.84;;;11.74;100.00
65329;BME280;51941;52.210;5.158;2023-05-15T00:03:24;101597.03;;;11.78;100.00
65329;BME280;51941;52.210;5.158;2023-05-15T00:05:51;101590.47;;;11.80;100.00
65329;BME280;51941;52.210;5.158;2023-05-15T00:08:18;101582.13;;;11.77;100.00
65329;BME280;51941;52.210;5.158;2023-05-15T00:10:46;101573.53;;;11.81;100.00
65329;BME280;51941;52.210;5.158;2023-05-15T00:13:12;101562.16;;;11.56;100.00
65329;BME280;51941;52.210;5.158;2023-05-15T00:15:39;101569.09;;;11.57;100.00
65329;BME280;51941;52.210;5.158;2023-05-15T00:18:05;101571.22;;;11.67;100.00
65329;BME280;51941;52.210;5.158;2023-05-15T00:20:32;101563.53;;;11.59;100.00
65329;BME280;51941;52.210;5.158;2023-05-15T00:22:59;101559.81;;;11.48;100.00
65329;BME280;51941;52.210;5.158;2023-05-15T00:25:25;101559.41;;;11.44;100.00
65329;BME280;51941;52.210;5.158;2023-05-15T00:27:54;101554.19;;;11.38;100.00
65329;BME280;51941;52.210;5.158;2023-05-15T00:30:21;101565.75;;;11.43;100.00
65329;BME280;51941;52.210;5.158;2023-05-15T00:32:47;101577.00;;;11.39;100.00
65329;BME280;51941;52.210;5.158;2023-05-15T00:35:16;101564.03;;;11.31;100.00
65329;BME280;51941;52.210;5.158;2023-05-15T00:37:43;101557.69;;;11.32;100.00
65329;BME280;51941;52.210;5.158;2023-05-15T00:40:11;101553.47;;;11.24;100.00
65329;BME280;51941;52.210;5.158;2023-05-15T00:42:45;101553.25;;;11.26;100.00
65329;BME280;51941;52.210;5.158;2023-05-15T00:45:14;101541.03;;;11.25;100.00
65329;BME280;51941;52.210;5.158;2023-05-15T00:47:41;101546.19;;;11.20;100.00
65329;BME280;51941;52.210;5.158;2023-05-15T00:50:09;101542.72;;;11.19;100.00
65329;BME280;51941;52.210;5.158;2023-05-15T00:52:37;101542.34;;;11.16;100.00
65329;BME280;51941;52.210;5.158;2023-05-15T00:55:04;101538.31;;;11.13;100.00
65329;BME280;51941;52.210;5.158;2023-05-15T00:57:32;101536.50;;;11.07;100.00
65329;BME280;51941;52.210;5.158;2023-05-15T00:59:59;101529.22;;;11.02;100.00
65329;BME280;51941;52.210;5.158;2023-05-15T01:02:27;101526.56;;;11.02;100.00
65329;BME280;51941;52.210;5.158;2023-05-15T01:04:54;101523.91;;;11.02;100.00
65329;BME280;51941;52.210;5.158;2023-05-15T01:07:21;101523.91;;;11.02;100.00
65329;BME280;51941;52.210;5.158;2023-05-15T01:09:48;101531.69;;;10.97;100.00
65329;BME280;51941;52.210;5.158;2023-05-15T01:12:15;101521.81;;;10.86;100.00
65329;BME280;51941;52.210;5.158;2023-05-15T01:14:44;101524.22;;;10.88;100.00
65329;BME280;51941;52.210;5.158;2023-05-15T01:17:11;101525.28;;;10.80;100.00
65329;BME280;51941;52.210;5.158;2023-05-15T01:19:44;101527.97;;;10.74;100.00
65329;BME280;51941;52.210;5.158;2023-05-15T01:22:24;101528.63;;;10.69;100.00
65329;BME280;51941;52.210;5.158;2023-05-15T01:25:30;101528.44;;;10.64;100.00
65329;BME280;51941;52.210;5.158;2023-05-15T01:28:02;101534.50;;;10.71;100.00
65329;BME280;51941;52.210;5.158;2023-05-15T01:30:33;101526.41;;;10.66;100.00
65329;BME280;51941;52.210;5.158;2023-05-15T01:33:03;101530.94;;;10.52;100.00
65329;BME280;51941;52.210;5.158;2023-05-15T01:35:34;101539.75;;;10.46;100.00
65329;BME280;51941;52.210;5.158;2023-05-15T01:38:10;101542.03;;;10.43;100.00
65329;BME280;51941;52.210;5.158;2023-05-15T01:40:39;101538.09;;;10.52;100.00
65329;BME280;51941;52.210;5.158;2023-05-15T01:43:11;101543.81;;;10.49;100.00
65329;BME280;51941;52.210;5.158;2023-05-15T01:45:42;101537.31;;;10.45;100.00
65329;BME280;51941;52.210;5.158;2023-05-15T01:48:09;101545.66;;;10.48;100.00
65329;BME280;51941;52.210;5.158;2023-05-15T01:50:38;101539.53;;;10.48;100.00
65329;BME280;51941;52.210;5.158;2023-05-15T01:53:06;101546.25;;;10.50;100.00
65329;BME280;51941;52.210;5.158;2023-05-15T01:55:35;101527.88;;;10.55;100.00
65329;BME280;51941;52.210;5.158;2023-05-15T01:58:03;101537.06;;;10.53;100.00
65329;BME280;51941;52.210;5.158;2023-05-15T02:00:33;101539.13;;;10.51;100.00
65329;BME280;51941;52.210;5.158;2023-05-15T02:03:00;101538.94;;;10.46;100.00
65329;BME280;51941;52.210;5.158;2023-05-15T02:05:28;101540.41;;;10.42;100.00
65329;BME280;51941;52.210;5.158;2023-05-15T02:07:55;101538.78;;;10.41;100.00
65329;BME280;51941;52.210;5.158;2023-05-15T02:10:22;101541.41;;;10.41;100.00
65329;BME280;51941;52.210;5.158;2023-05-15T02:12:51;101534.09;;;10.36;100.00
65329;BME280;51941;52.210;5.158;2023-05-15T02:15:20;101529.25;;;10.33;100.00
65329;BME280;51941;52.210;5.158;2023-05-15T02:17:50;101533.16;;;10.24;100.00
65329;BME280;51941;52.210;5.158;2023-05-15T02:20:16;101527.09;;;10.17;100.00
65329;BME280;51941;52.210;5.158;2023-05-15T02:22:43;101533.38;;;10.22;100.00
65329;BME280;51941;52.210;5.158;2023-05-15T02:25:09;101523.47;;;10.05;100.00
65329;BME280;51941;52.210;5.158;2023-05-15T02:27:41;101520.44;;;10.01;100.00
65329;BME280;51941;52.210;5.158;2023-05-15T02:30:20;101509.69;;;9.96;100.00
65329;BME280;51941;52.210;5.158;2023-05-15T02:33:00;101507.66;;;9.91;100.00
65329;BME280;51941;52.210;5.158;2023-05-15T02:35:34;101519.84;;;9.92;100.00
65329;BME280;51941;52.210;5.158;2023-05-15T02:38:08;101527.41;;;9.89;100.00
65329;BME280;51941;52.210;5.158;2023-05-15T02:40:35;101522.69;;;9.91;100.00
65329;BME280;51941;52.210;5.158;2023-05-15T02:43:04;101526.19;;;9.85;100.00
65329;BME280;51941;52.210;5.158;2023-05-15T02:45:33;101512.34;;;9.83;100.00
65329;BME280;51941;52.210;5.158;2023-05-15T02:48:02;101523.94;;;9.82;100.00
65329;BME280;51941;52.210;5.158;2023-05-15T02:50:30;101519.91;;;9.79;100.00
65329;BME280;51941;52.210;5.158;2023-05-15T02:53:01;101517.31;;;9.73;100.00
65329;BME280;51941;52.210;5.158;2023-05-15T02:55:28;101536.19;;;9.76;100.00
65329;BME280;51941;52.210;5.158;2023-05-15T02:57:55;101519.03;;;9.92;100.00
65329;BME280;51941;52.210;5.158;2023-05-15T03:00:22;101521.69;;;9.92;100.00
65329;BME280;51941;52.210;5.158;2023-05-15T03:02:49;101522.75;;;9.78;100.00
65329;BME280;51941;52.210;5.158;2023-05-15T03:05:17;101522.56;;;9.79;100.00
65329;BME280;51941;52.210;5.158;2023-05-15T03:07:43;101522.56;;;9.79;100.00
65329;BME280;51941;52.210;5.158;2023-05-15T03:10:10;101518.25;;;9.85;100.00
65329;BME280;51941;52.210;5.158;2023-05-15T03:12:37;101532.06;;;9.93;100.00
65329;BME280;51941;52.210;5.158;2023-05-15T03:15:05;101514.97;;;9.96;100.00
65329;BME280;51941;52.210;5.158;2023-05-15T03:17:32;101518.22;;;9.98;100.00
65329;BME280;51941;52.210;5.158;2023-05-15T03:19:58;101508.84;;;10.02;100.00
65329;BME280;51941;52.210;5.158;2023-05-15T03:22:26;101513.63;;;10.18;100.00
65329;BME280;51941;52.210;5.158;2023-05-15T03:24:53;101516.97;;;10.07;100.00
65329;BME280;51941;52.210;5.158;2023-05-15T03:27:20;101510.63;;;10.15;100.00
65329;BME280;51941;52.210;5.158;2023-05-15T03:29:46;101508.34;;;10.18;100.00
65329;BME280;51941;52.210;5.158;2023-05-15T03:32:15;101509.75;;;10.21;100.00
65329;BME280;51941;52.210;5.158;2023-05-15T03:34:42;101508.75;;;10.22;100.00
65329;BME280;51941;52.210;5.158;2023-05-15T03:37:09;101514.00;;;10.28;100.00
65329;BME280;51941;52.210;5.158;2023-05-15T03:39:37;101512.38;;;10.27;100.00
65329;BME280;51941;52.210;5.158;2023-05-15T03:42:04;101508.09;;;10.33;100.00
65329;BME280;51941;52.210;5.158;2023-05-15T03:44:30;101510.06;;;10.38;100.00
65329;BME280;51941;52.210;5.158;2023-05-15T03:46:57;101504.38;;;10.41;100.00
65329;BME280;51941;52.210;5.158;2023-05-15T03:49:24;101508.81;;;10.47;100.00
65329;BME280;51941;52.210;5.158;2023-05-15T03:51:51;101503.50;;;10.47;100.00
65329;BME280;51941;52.210;5.158;2023-05-15T03:54:18;101507.38;;;10.51;100.00
65329;BME280;51941;52.210;5.158;2023-05-15T03:56:46;101523.50;;;10.36;100.00
65329;BME280;51941;52.210;5.158;2023-05-15T03:59:12;101515.75;;;10.41;100.00
65329;BME280;51941;52.210;5.158;2023-05-15T04:01:39;101506.56;;;10.44;100.00
65329;BME280;51941;52.210;5.158;2023-05-15T04:04:06;101502.91;;;10.45;100.00
65329;BME280;51941;52.210;5.158;2023-05-15T04:06:32;101511.84;;;10.50;100.00
65329;BME280;51941;52.210;5.158;2023-05-15T04:08:59;101503.72;;;10.45;100.00
65329;BME280;51941;52.210;5.158;2023-05-15T04:11:25;101506.91;;;10.54;100.00
65329;BME280;51941;52.210;5.158;2023-05-15T04:13:54;101520.16;;;10.54;100.00
65329;BME280;51941;52.210;5.158;2023-05-15T04:16:20;101511.78;;;10.57;100.00
65329;BME280;51941;52.210;5.158;2023-05-15T04:18:47;101516.06;;;10.58;100.00
65329;BME280;51941;52.210;5.158;2023-05-15T04:21:14;101517.47;;;10.60;100.00
65329;BME280;51941;52.210;5.158;2023-05-15T04:23:40;101530.13;;;10.58;100.00
65329;BME280;51941;52.210;5.158;2023-05-15T04:26:07;101534.16;;;10.61;100.00
65329;BME280;51941;52.210;5.158;2023-05-15T04:28:34;101521.78;;;10.55;100.00
65329;BME280;51941;52.210;5.158;2023-05-15T04:31:02;101523.59;;;10.54;100.00
65329;BME280;51941;52.210;5.158;2023-05-15T04:33:29;101526.06;;;10.56;100.00
65329;BME280;51941;52.210;5.158;2023-05-15T04:35:55;101522.97;;;10.59;100.00
65329;BME280;51941;52.210;5.158;2023-05-15T04:38:22;101521.31;;;10.64;100.00
65329;BME280;51941;52.210;5.158;2023-05-15T04:40:49;101528.66;;;10.62;100.00
65329;BME280;51941;52.210;5.158;2023-05-15T04:43:15;101522.13;;;10.65;100.00
65329;BME280;51941;52.210;5.158;2023-05-15T04:45:42;101510.91;;;10.69;100.00
65329;BME280;51941;52.210;5.158;2023-05-15T04:48:10;101511.09;;;10.75;100.00
65329;BME280;51941;52.210;5.158;2023-05-15T04:50:37;101516.38;;;10.75;100.00
65329;BME280;51941;52.210;5.158;2023-05-15T04:53:03;101515.72;;;10.79;100.00
65329;BME280;51941;52.210;5.158;2023-05-15T04:55:30;101513.09;;;10.79;100.00
65329;BME280;51941;52.210;5.158;2023-05-15T04:57:57;101498.00;;;10.80;100.00
65329;BME280;51941;52.210;5.158;2023-05-15T05:00:24;101514.69;;;10.87;100.00
65329;BME280;51941;52.210;5.158;2023-05-15T05:02:54;101520.28;;;10.97;100.00
65329;BME280;51941;52.210;5.158;2023-05-15T05:05:22;101522.34;;;10.95;100.00
65329;BME280;51941;52.210;5.158;2023-05-15T05:07:49;101527.09;;;11.11;100.00
65329;BME280;51941;52.210;5.158;2023-05-15T05:10:16;101517.13;;;11.06;100.00
65329;BME280;51941;52.210;5.158;2023-05-15T05:12:43;101505.84;;;11.18;100.00
65329;BME280;51941;52.210;5.158;2023-05-15T05:15:10;101511.28;;;11.23;100.00
65329;BME280;51941;52.210;5.158;2023-05-15T05:17:36;101514.03;;;11.34;100.00
65329;BME280;51941;52.210;5.158;2023-05-15T05:20:04;101515.03;;;11.40;100.00
65329;BME280;51941;52.210;5.158;2023-05-15T05:22:34;101509.72;;;11.40;100.00
65329;BME280;51941;52.210;5.158;2023-05-15T05:25:01;101524.13;;;11.44;100.00
65329;BME280;51941;52.210;5.158;2023-05-15T05:27:27;101529.81;;;11.48;100.00
65329;BME280;51941;52.210;5.158;2023-05-15T05:29:54;101522.53;;;11.61;100.00
65329;BME280;51941;52.210;5.158;2023-05-15T05:32:21;101520.91;;;11.60;100.00
65329;BME280;51941;52.210;5.158;2023-05-15T05:34:48;101525.69;;;11.70;100.00
65329;BME280;51941;52.210;5.158;2023-05-15T05:37:14;101527.75;;;11.68;100.00
65329;BME280;51941;52.210;5.158;2023-05-15T05:39:43;101516.94;;;11.69;100.00
65329;BME280;51941;52.210;5.158;2023-05-15T05:42:09;101509.72;;;11.76;100.00
65329;BME280;51941;52.210;5.158;2023-05-15T05:44:36;101512.06;;;11.85;100.00
65329;BME280;51941;52.210;5.158;2023-05-15T05:47:03;101513.16;;;11.95;100.00
65329;BME280;51941;52.210;5.158;2023-05-15T05:49:30;101515.88;;;12.07;100.00
65329;BME280;51941;52.210;5.158;2023-05-15T05:52:04;101501.94;;;12.11;100.00
65329;BME280;51941;52.210;5.158;2023-05-15T05:54:30;101504.34;;;12.31;100.00
65329;BME280;51941;52.210;5.158;2023-05-15T05:56:58;101504.78;;;12.58;100.00
65329;BME280;51941;52.210;5.158;2023-05-15T05:59:25;101498.50;;;12.94;100.00
65329;BME280;51941;52.210;5.158;2023-05-15T06:01:53;101485.56;;;13.32;100.00
65329;BME280;51941;52.210;5.158;2023-05-15T06:04:20;101494.31;;;13.68;100.00
65329;BME280;51941;52.210;5.158;2023-05-15T06:06:46;101497.75;;;13.80;100.00
65329;BME280;51941;52.210;5.158;2023-05-15T06:09:14;101503.28;;;13.90;100.00
65329;BME280;51941;52.210;5.158;2023-05-15T06:11:41;101494.03;;;13.81;100.00
65329;BME280;51941;52.210;5.158;2023-05-15T06:14:09;101502.50;;;13.78;100.00
65329;BME280;51941;52.210;5.158;2023-05-15T06:16:35;101512.09;;;13.79;100.00
65329;BME280;51941;52.210;5.158;2023-05-15T06:19:02;101513.03;;;13.85;100.00
65329;BME280;51941;52.210;5.158;2023-05-15T06:21:29;101517.63;;;13.89;100.00
65329;BME280;51941;52.210;5.158;2023-05-15T06:23:55;101515.69;;;13.85;100.00
65329;BME280;51941;52.210;5.158;2023-05-15T06:26:22;101522.38;;;13.87;100.00
65329;BME280;51941;52.210;5.158;2023-05-15T06:28:49;101509.84;;;13.59;100.00
65329;BME280;51941;52.210;5.158;2023-05-15T06:31:18;101504.63;;;13.53;100.00
65329;BME280;51941;52.210;5.158;2023-05-15T06:33:45;101505.13;;;13.50;100.00
65329;BME280;51941;52.210;5.158;2023-05-15T06:36:11;101500.38;;;13.40;100.00
65329;BME280;51941;52.210;5.158;2023-05-15T06:38:38;101508.19;;;13.35;100.00
65329;BME280;51941;52.210;5.158;2023-05-15T06:41:05;101495.72;;;13.36;100.00
65329;BME280;51941;52.210;5.158;2023-05-15T06:43:31;101497.69;;;13.28;100.00
65329;BME280;51941;52.210;5.158;2023-05-15T06:45:58;101488.09;;;13.27;100.00
65329;BME280;51941;52.210;5.158;2023-05-15T06:48:26;101485.78;;;13.19;100.00
65329;BME280;51941;52.210;5.158;2023-05-15T06:50:53;101489.25;;;13.20;100.00
65329;BME280;51941;52.210;5.158;2023-05-15T06:53:20;101484.88;;;13.14;100.00
65329;BME280;51941;52.210;5.158;2023-05-15T06:55:46;101494.94;;;13.23;100.00
65329;BME280;51941;52.210;5.158;2023-05-15T06:58:13;101489.13;;;13.26;100.00
65329;BME280;51941;52.210;5.158;2023-05-15T07:00:42;101505.34;;;13.48;100.00
65329;BME280;51941;52.210;5.158;2023-05-15T07:03:09;101494.19;;;13.75;100.00
65329;BME280;51941;52.210;5.158;2023-05-15T07:05:37;101492.81;;;14.12;100.00
65329;BME280;51941;52.210;5.158;2023-05-15T07:08:04;101481.78;;;14.37;100.00
65329;BME280;51941;52.210;5.158;2023-05-15T07:10:30;101489.44;;;14.62;100.00
65329;BME280;51941;52.210;5.158;2023-05-15T07:12:58;101479.53;;;14.91;100.00
65329;BME280;51941;52.210;5.158;2023-05-15T07:15:25;101482.28;;;15.34;100.00
65329;BME280;51941;52.210;5.158;2023-05-15T07:17:52;101485.25;;;15.38;100.00
65329;BME280;51941;52.210;5.158;2023-05-15T07:20:19;101490.72;;;15.48;100.00
65329;BME280;51941;52.210;5.158;2023-05-15T07:22:47;101480.34;;;15.68;100.00
65329;BME280;51941;52.210;5.158;2023-05-15T07:25:14;101473.69;;;15.92;100.00
65329;BME280;51941;52.210;5.158;2023-05-15T07:27:41;101475.81;;;16.17;100.00
65329;BME280;51941;52.210;5.158;2023-05-15T07:30:08;101475.88;;;16.22;100.00
65329;BME280;51941;52.210;5.158;2023-05-15T07:32:35;101475.56;;;16.51;100.00
65329;BME280;51941;52.210;5.158;2023-05-15T07:35:06;101471.47;;;16.65;100.00
65329;BME280;51941;52.210;5.158;2023-05-15T07:37:32;101469.72;;;16.54;100.00
65329;BME280;51941;52.210;5.158;2023-05-15T07:40:00;101475.41;;;16.30;100.00
65329;BME280;51941;52.210;5.158;2023-05-15T07:42:27;101473.13;;;16.17;100.00
65329;BME280;51941;52.210;5.158;2023-05-15T07:44:54;101471.78;;;16.15;100.00
65329;BME280;51941;52.210;5.158;2023-05-15T07:47:21;101478.31;;;16.29;100.00
65329;BME280;51941;52.210;5.158;2023-05-15T07:49:47;101481.19;;;15.96;100.00
65329;BME280;51941;52.210;5.158;2023-05-15T07:52:14;101474.84;;;16.02;100.00
65329;BME280;51941;52.210;5.158;2023-05-15T07:54:40;101481.22;;;16.22;100.00
65329;BME280;51941;52.210;5.158;2023-05-15T07:57:09;101492.28;;;16.36;100.00
65329;BME280;51941;52.210;5.158;2023-05-15T07:59:37;101490.63;;;16.30;100.00
65329;BME280;51941;52.210;5.158;2023-05-15T08:02:03;101496.16;;;16.50;100.00
65329;BME280;51941;52.210;5.158;2023-05-15T08:04:30;101513.34;;;16.59;100.00
65329;BME280;51941;52.210;5.158;2023-05-15T08:06:57;101504.38;;;16.44;100.00
65329;BME280;51941;52.210;5.158;2023-05-15T08:09:23;101504.56;;;16.32;100.00
65329;BME280;51941;52.210;5.158;2023-05-15T08:11:50;101493.66;;;16.12;100.00
65329;BME280;51941;52.210;5.158;2023-05-15T08:14:18;101499.69;;;16.29;100.00
65329;BME280;51941;52.210;5.158;2023-05-15T08:16:45;101496.00;;;16.35;100.00
65329;BME280;51941;52.210;5.158;2023-05-15T08:19:12;101502.06;;;16.25;100.00
65329;BME280;51941;52.210;5.158;2023-05-15T08:21:38;101502.06;;;16.25;100.00
65329;BME280;51941;52.210;5.158;2023-05-15T08:24:05;101497.25;;;16.22;100.00
65329;BME280;51941;52.210;5.158;2023-05-15T08:26:32;101493.53;;;16.28;100.00
65329;BME280;51941;52.210;5.158;2023-05-15T08:28:59;101504.34;;;16.39;100.00
65329;BME280;51941;52.210;5.158;2023-05-15T08:31:27;101495.41;;;16.28;100.00
65329;BME280;51941;52.210;5.158;2023-05-15T08:33:57;101497.69;;;16.41;100.00
65329;BME280;51941;52.210;5.158;2023-05-15T08:36:24;101493.59;;;16.34;100.00
65329;BME280;51941;52.210;5.158;2023-05-15T08:38:50;101494.81;;;16.21;100.00
65329;BME280;51941;52.210;5.158;2023-05-15T08:41:23;101502.94;;;16.31;100.00
65329;BME280;51941;52.210;5.158;2023-05-15T08:43:51;101499.94;;;16.27;100.00
65329;BME280;51941;52.210;5.158;2023-05-15T08:46:21;101498.03;;;16.23;100.00
65329;BME280;51941;52.210;5.158;2023-05-15T08:48:50;101503.88;;;16.20;100.00
65329;BME280;51941;52.210;5.158;2023-05-15T08:51:18;101503.28;;;16.13;100.00
65329;BME280;51941;52.210;5.158;2023-05-15T08:53:46;101509.81;;;16.00;100.00
65329;BME280;51941;52.210;5.158;2023-05-15T08:56:13;101511.28;;;15.91;100.00
65329;BME280;51941;52.210;5.158;2023-05-15T08:58:40;101507.97;;;15.79;100.00
65329;BME280;51941;52.210;5.158;2023-05-15T09:01:08;101512.84;;;15.65;100.00
65329;BME280;51941;52.210;5.158;2023-05-15T09:03:35;101510.69;;;15.45;100.00
65329;BME280;51941;52.210;5.158;2023-05-15T09:06:04;101509.28;;;15.21;100.00
65329;BME280;51941;52.210;5.158;2023-05-15T09:08:31;101510.28;;;15.15;100.00
65329;BME280;51941;52.210;5.158;2023-05-15T09:10:59;101513.38;;;15.29;100.00
65329;BME280;51941;52.210;5.158;2023-05-15T09:13:28;101528.34;;;15.30;100.00
65329;BME280;51941;52.210;5.158;2023-05-15T09:15:55;101516.00;;;15.24;100.00
65329;BME280;51941;52.210;5.158;2023-05-15T09:18:21;101521.50;;;15.17;100.00
65329;BME280;51941;52.210;5.158;2023-05-15T09:20:48;101519.56;;;15.12;100.00
65329;BME280;51941;52.210;5.158;2023-05-15T09:23:25;101531.44;;;15.22;100.00
65329;BME280;51941;52.210;5.158;2023-05-15T09:25:52;101514.63;;;15.21;100.00
65329;BME280;51941;52.210;5.158;2023-05-15T09:28:25;101518.00;;;15.33;100.00
65329;BME280;51941;52.210;5.158;2023-05-15T09:30:57;101517.19;;;15.33;100.00
65329;BME280;51941;52.210;5.158;2023-05-15T09:33:30;101516.19;;;15.39;100.00
65329;BME280;51941;52.210;5.158;2023-05-15T09:35:57;101514.94;;;15.25;100.00
65329;BME280;51941;52.210;5.158;2023-05-15T09:38:26;101519.22;;;15.26;100.00
65329;BME280;51941;52.210;5.158;2023-05-15T09:41:03;101523.59;;;15.15;100.00
65329;BME280;51941;52.210;5.158;2023-05-15T09:43:36;101518.50;;;15.13;100.00
65329;BME280;51941;52.210;5.158;2023-05-15T09:46:03;101515.38;;;15.00;100.00
65329;BME280;51941;52.210;5.158;2023-05-15T09:48:30;101513.44;;;14.95;100.00
65329;BME280;51941;52.210;5.158;2023-05-15T09:50:59;101520.94;;;14.82;100.00
65329;BME280;51941;52.210;5.158;2023-05-15T09:53:27;101516.56;;;14.59;100.00
65329;BME280;51941;52.210;5.158;2023-05-15T09:55:54;101523.59;;;14.65;100.00
65329;BME280;51941;52.210;5.158;2023-05-15T09:58:21;101531.19;;;14.73;100.00
65329;BME280;51941;52.210;5.158;2023-05-15T10:00:50;101535.56;;;14.79;100.00
65329;BME280;51941;52.210;5.158;2023-05-15T10:03:17;101527.56;;;14.79;100.00
65329;BME280;51941;52.210;5.158;2023-05-15T10:05:45;101522.16;;;14.74;100.00
65329;BME280;51941;52.210;5.158;2023-05-15T10:08:12;101530.88;;;14.86;100.00
65329;BME280;51941;52.210;5.158;2023-05-15T10:10:41;101525.66;;;14.91;100.00
65329;BME280;51941;52.210;5.158;2023-05-15T10:13:09;101536.44;;;15.01;100.00
65329;BME280;51941;52.210;5.158;2023-05-15T10:15:37;101532.19;;;15.00;100.00
65329;BME280;51941;52.210;5.158;2023-05-15T10:18:05;101525.31;;;15.04;100.00
65329;BME280;51941;52.210;5.158;2023-05-15T10:20:34;101531.22;;;15.06;100.00
65329;BME280;51941;52.210;5.158;2023-05-15T10:23:03;101535.16;;;15.04;100.00
65329;BME280;51941;52.210;5.158;2023-05-15T10:25:34;101534.59;;;15.02;100.00
65329;BME280;51941;52.210;5.158;2023-05-15T10:28:07;101540.50;;;15.04;100.00
65329;BME280;51941;52.210;5.158;2023-05-15T10:30:35;101530.63;;;15.04;100.00
65329;BME280;51941;52.210;5.158;2023-05-15T10:33:03;101534.44;;;15.08;100.00
65329;BME280;51941;52.210;5.158;2023-05-15T10:35:30;101526.59;;;15.02;100.00
65329;BME280;51941;52.210;5.158;2023-05-15T10:37:58;101520.22;;;15.03;100.00
65329;BME280;51941;52.210;5.158;2023-05-15T10:40:25;101523.63;;;14.98;100.00
65329;BME280;51941;52.210;5.158;2023-05-15T10:42:54;101521.75;;;14.99;100.00
65329;BME280;51941;52.210;5.158;2023-05-15T10:45:24;101527.16;;;15.04;100.00
65329;BME280;51941;52.210;5.158;2023-05-15T10:47:51;101537.41;;;15.12;100.00
65329;BME280;51941;52.210;5.158;2023-05-15T10:50:18;101531.84;;;15.13;100.00
65329;BME280;51941;52.210;5.158;2023-05-15T10:52:45;101529.41;;;15.12;100.00
65329;BME280;51941;52.210;5.158;2023-05-15T10:55:13;101514.56;;;15.16;100.00
65329;BME280;51941;52.210;5.158;2023-05-15T10:57:41;101522.44;;;15.28;100.00
65329;BME280;51941;52.210;5.158;2023-05-15T11:03:04;101518.56;;;15.35;100.00
65329;BME280;51941;52.210;5.158;2023-05-15T11:06:06;101520.09;;;15.31;100.00
65329;BME280;51941;52.210;5.158;2023-05-15T11:08:34;101526.72;;;15.29;100.00
65329;BME280;51941;52.210;5.158;2023-05-15T11:11:01;101532.31;;;15.27;100.00
65329;BME280;51941;52.210;5.158;2023-05-15T11:14:10;101514.41;;;15.06;100.00
65329;BME280;51941;52.210;5.158;2023-05-15T11:16:59;101523.91;;;15.18;100.00
65329;BME280;51941;52.210;5.158;2023-05-15T11:19:56;101526.97;;;15.27;100.00
65329;BME280;51941;52.210;5.158;2023-05-15T11:22:28;101516.81;;;15.24;100.00
65329;BME280;51941;52.210;5.158;2023-05-15T11:24:58;101516.59;;;15.47;100.00
65329;BME280;51941;52.210;5.158;2023-05-15T11:27:30;101511.16;;;15.59;100.00
65329;BME280;51941;52.210;5.158;2023-05-15T11:30:05;101515.16;;;15.78;100.00
65329;BME280;51941;52.210;5.158;2023-05-15T11:32:54;101512.66;;;15.93;100.00
65329;BME280;51941;52.210;5.158;2023-05-15T11:35:25;101505.03;;;15.80;100.00
65329;BME280;51941;52.210;5.158;2023-05-15T11:37:53;101504.47;;;16.00;100.00
65329;BME280;51941;52.210;5.158;2023-05-15T11:40:23;101510.44;;;16.34;100.00
65329;BME280;51941;52.210;5.158;2023-05-15T11:43:01;101508.66;;;16.18;100.00
65329;BME280;51941;52.210;5.158;2023-05-15T11:45:29;101508.06;;;16.38;100.00
65329;BME280;51941;52.210;5.158;2023-05-15T11:47:59;101495.44;;;16.33;100.00
65329;BME280;51941;52.210;5.158;2023-05-15T11:50:29;101501.22;;;16.47;100.00
65329;BME280;51941;52.210;5.158;2023-05-15T11:52:56;101496.50;;;16.59;100.00
65329;BME280;51941;52.210;5.158;2023-05-15T11:55:24;101501.75;;;16.76;100.00
65329;BME280;51941;52.210;5.158;2023-05-15T11:57:50;101489.22;;;16.81;100.00
65329;BME280;51941;52.210;5.158;2023-05-15T12:00:17;101489.66;;;17.05;100.00
65329;BME280;51941;52.210;5.158;2023-05-15T12:02:44;101494.44;;;17.03;100.00
65329;BME280;51941;52.210;5.158;2023-05-15T12:05:11;101496.47;;;17.23;100.00
65329;BME280;51941;52.210;5.158;2023-05-15T12:07:42;101505.44;;;17.49;100.00
65329;BME280;51941;52.210;5.158;2023-05-15T12:10:10;101505.56;;;17.74;100.00
65329;BME280;51941;52.210;5.158;2023-05-15T12:12:38;101497.88;;;17.93;100.00
65329;BME280;51941;52.210;5.158;2023-05-15T12:15:08;101492.69;;;17.61;100.00
65329;BME280;51941;52.210;5.158;2023-05-15T12:17:36;101493.09;;;17.48;100.00
65329;BME280;51941;52.210;5.158;2023-05-15T12:20:04;101491.28;;;17.53;100.00
65329;BME280;51941;52.210;5.158;2023-05-15T12:22:37;101488.94;;;17.62;100.00
65329;BME280;51941;52.210;5.158;2023-05-15T12:25:06;101489.34;;;17.43;100.00
65329;BME280;51941;52.210;5.158;2023-05-15T12:27:33;101491.38;;;17.63;100.00
65329;BME280;51941;52.210;5.158;2023-05-15T12:30:01;101482.06;;;17.34;100.00
65329;BME280;51941;52.210;5.158;2023-05-15T12:32:30;101483.59;;;17.62;100.00
65329;BME280;51941;52.210;5.158;2023-05-15T12:34:57;101482.66;;;17.41;100.00
65329;BME280;51941;52.210;5.158;2023-05-15T12:37:30;101485.38;;;17.46;100.00
65329;BME280;51941;52.210;5.158;2023-05-15T12:39:59;101483.81;;;17.55;100.00
65329;BME280;51941;52.210;5.158;2023-05-15T12:42:38;101495.03;;;17.52;100.00
65329;BME280;51941;52.210;5.158;2023-05-15T12:45:11;101487.66;;;17.27;100.00
65329;BME280;51941;52.210;5.158;2023-05-15T12:47:39;101496.19;;;17.19;100.00
65329;BME280;51941;52.210;5.158;2023-05-15T12:50:12;101479.84;;;16.79;100.00